Time;durP1;ratioP1;P1;durP2;ratioP2;P2;SDS_P1;SDS_P2;PMS_P1;PMS_P2;Temp;Humidity;BMP_temperature;BMP_pressure;BME280_temperature;BME280_humidity;BME280_pressure;Samples;Min_cycle;Max_cycle;Signal;HPM_P1;HPM_P2
2023/01/26 00:01:11;;;;;;;;;76.75;58.00;;;;;6.16;100.00;102343.28;5084698;28;45379;-81
2023/01/26 00:03:37;;;;;;;;;73.50;54.25;;;;;6.38;100.00;102337.63;5080592;27;45297;-81
2023/01/26 00:06:07;;;;;;;;;78.75;55.50;;;;;6.47;100.00;102330.84;5083682;28;45372;-82
2023/01/26 00:08:41;;;;;;;;;75.25;57.00;;;;;6.39;100.00;102316.91;5078168;28;47192;-81
2023/01/26 00:11:08;;;;;;;;;76.00;55.50;;;;;6.49;100.00;102307.34;5081813;27;45481;-81
2023/01/26 00:13:34;;;;;;;;;71.50;56.00;;;;;6.56;100.00;102304.22;5071057;28;45354;-81
2023/01/26 00:16:01;;;;;;;;;73.50;55.50;;;;;6.59;100.00;102303.16;5068611;28;45276;-81
2023/01/26 00:18:27;;;;;;;;;72.25;54.00;;;;;6.58;100.00;102307.69;5073657;28;46666;-81
2023/01/26 00:20:59;;;;;;;;;70.75;55.75;;;;;6.59;100.00;102305.88;5083036;27;45472;-81
2023/01/26 00:23:27;;;;;;;;;72.00;54.00;;;;;6.58;100.00;102306.81;5072087;28;45501;-81
2023/01/26 00:25:52;;;;;;;;;80.50;59.75;;;;;6.63;100.00;102289.44;5083323;27;45556;-81
2023/01/26 00:28:18;;;;;;;;;73.25;53.50;;;;;6.74;100.00;102283.41;5076401;27;46437;-81
2023/01/26 00:30:43;;;;;;;;;83.50;57.50;;;;;6.78;100.00;102274.19;5078047;28;45372;-81
2023/01/26 00:33:09;;;;;;;;;81.00;53.75;;;;;6.80;100.00;102258.75;5070624;28;45319;-81
2023/01/26 00:35:34;;;;;;;;;83.50;59.50;;;;;6.85;100.00;102275.59;5080846;27;45349;-81
2023/01/26 00:37:59;;;;;;;;;81.75;58.25;;;;;6.78;100.00;102266.09;5076737;28;48528;-81
2023/01/26 00:40:25;;;;;;;;;83.75;57.75;;;;;6.82;100.00;102273.03;5074259;27;45351;-81
2023/01/26 00:42:53;;;;;;;;;69.75;52.50;;;;;6.79;100.00;102269.66;5071497;28;45567;-81
2023/01/26 00:45:18;;;;;;;;;70.00;54.00;;;;;6.83;100.00;102265.81;5073482;28;45385;-81
2023/01/26 00:47:44;;;;;;;;;72.75;55.00;;;;;6.90;100.00;102262.66;5076634;27;46447;-80
2023/01/26 00:50:09;;;;;;;;;71.25;54.50;;;;;6.87;100.00;102257.44;5083662;27;45354;-81
2023/01/26 00:52:35;;;;;;;;;68.25;51.75;;;;;6.87;100.00;102238.53;5070276;28;45557;-81
2023/01/26 00:55:00;;;;;;;;;73.50;54.50;;;;;6.95;100.00;102247.06;5078532;27;45429;-82
2023/01/26 00:57:26;;;;;;;;;71.50;52.50;;;;;6.99;100.00;102242.38;5077996;27;45384;-81
2023/01/26 00:59:51;;;;;;;;;83.75;56.75;;;;;6.97;100.00;102238.88;5077999;28;45348;-81
2023/01/26 01:02:16;;;;;;;;;76.50;54.75;;;;;6.94;100.00;102228.25;5081035;27;45428;-81
2023/01/26 01:04:42;;;;;;;;;79.50;56.75;;;;;6.93;100.00;102227.38;5075800;28;45647;-82
2023/01/26 01:07:07;;;;;;;;;68.25;53.00;;;;;6.95;100.00;102230.84;5081458;27;45428;-81
2023/01/26 01:09:32;;;;;;;;;68.00;51.50;;;;;7.00;100.00;102234.16;5075839;27;45357;-81
2023/01/26 01:11:58;;;;;;;;;83.00;58.25;;;;;6.91;100.00;102232.00;5070414;27;46026;-80
2023/01/26 01:14:23;;;;;;;;;69.50;53.00;;;;;6.95;100.00;102225.44;5077259;27;45297;-81
2023/01/26 01:16:49;;;;;;;;;75.75;53.75;;;;;6.99;100.00;102213.50;5082410;27;46334;-81
2023/01/26 01:19:15;;;;;;;;;73.50;53.75;;;;;7.04;100.00;102230.31;5077996;27;45376;-81
2023/01/26 01:21:42;;;;;;;;;85.75;59.25;;;;;6.86;100.00;102219.72;5082149;27;45320;-81
2023/01/26 01:24:07;;;;;;;;;76.75;56.00;;;;;6.81;100.00;102227.19;5074158;28;45398;-81
2023/01/26 01:26:32;;;;;;;;;87.25;60.25;;;;;6.79;100.00;102230.00;5096320;27;48366;-81
2023/01/26 01:28:58;;;;;;;;;80.75;59.00;;;;;6.73;100.00;102227.63;5071454;28;45287;-81
2023/01/26 01:31:24;;;;;;;;;77.50;59.25;;;;;6.80;100.00;102209.25;5068135;27;45262;-81
2023/01/26 01:33:52;;;;;;;;;77.50;58.50;;;;;6.98;100.00;102229.81;5077395;28;45248;-81
2023/01/26 01:36:17;;;;;;;;;82.50;59.25;;;;;6.87;100.00;102227.72;5067333;28;46354;-81
2023/01/26 01:38:44;;;;;;;;;81.25;59.00;;;;;6.79;100.00;102219.22;5088391;27;45328;-81
2023/01/26 01:41:10;;;;;;;;;75.25;55.25;;;;;6.56;100.00;102201.63;5079019;28;45465;-81
2023/01/26 01:43:36;;;;;;;;;79.00;56.75;;;;;6.63;100.00;102231.84;5075206;27;45498;-81
2023/01/26 01:46:18;;;;;;;;;80.75;57.50;;;;;6.77;100.00;102237.31;5080588;28;46904;-81
2023/01/26 01:48:52;;;;;;;;;75.75;56.25;;;;;6.91;100.00;102223.91;5079076;28;45527;-81
2023/01/26 01:51:26;;;;;;;;;78.00;58.00;;;;;6.94;100.00;102209.34;5085049;28;45341;-81
2023/01/26 01:53:56;;;;;;;;;81.75;58.50;;;;;6.97;100.00;102212.72;5081320;27;45333;-81
2023/01/26 01:56:25;;;;;;;;;78.50;57.00;;;;;7.02;100.00;102215.13;5085147;28;47037;-81
2023/01/26 01:58:54;;;;;;;;;85.00;58.00;;;;;7.03;100.00;102223.16;5077787;27;45933;-80
2023/01/26 02:01:19;;;;;;;;;76.00;57.00;;;;;7.04;100.00;102214.09;5073924;28;45381;-81
2023/01/26 02:03:49;;;;;;;;;77.50;58.25;;;;;7.04;100.00;102214.09;5079427;28;45560;-81
2023/01/26 02:06:15;;;;;;;;;85.75;60.75;;;;;7.01;100.00;102216.97;5082116;28;47122;-81
2023/01/26 02:08:48;;;;;;;;;74.50;55.75;;;;;7.02;100.00;102216.00;5073761;28;45560;-80
2023/01/26 02:11:17;;;;;;;;;84.50;60.25;;;;;6.86;100.00;102208.91;5076585;27;45305;-81
2023/01/26 02:13:47;;;;;;;;;78.25;58.25;;;;;6.81;100.00;102216.41;5076254;28;45610;-81
2023/01/26 02:16:13;;;;;;;;;72.75;54.50;;;;;6.82;100.00;102208.22;5075736;28;48279;-81
2023/01/26 02:18:39;;;;;;;;;81.50;59.25;;;;;6.80;100.00;102195.75;5075363;28;46267;-81
2023/01/26 02:21:08;;;;;;;;;81.25;57.75;;;;;6.75;100.00;102211.34;5075882;27;45385;-81
2023/01/26 02:24:00;;;;;;;;;79.75;57.50;;;;;6.62;100.00;102213.88;5076575;28;45300;-81
2023/01/26 02:26:28;;;;;;;;;72.00;54.50;;;;;6.48;100.00;102203.88;5080985;28;45494;-81
2023/01/26 02:28:54;;;;;;;;;81.00;58.50;;;;;6.47;100.00;102206.66;5093892;27;45522;-81
2023/01/26 02:31:21;;;;;;;;;77.00;55.75;;;;;6.59;100.00;102209.53;5086238;28;45551;-80
2023/01/26 02:33:47;;;;;;;;;79.25;53.00;;;;;6.53;100.00;102195.50;5079778;27;45736;-80
2023/01/26 02:36:27;;;;;;;;;73.25;52.75;;;;;6.49;100.00;102199.34;5084874;28;48296;-80
2023/01/26 02:39:10;;;;;;;;;83.75;60.75;;;;;6.63;100.00;102204.84;5077519;28;45412;-80
2023/01/26 02:44:21;;;;;;;;;82.50;59.25;;;;;6.44;100.00;102171.72;5070930;28;45288;-80
2023/01/26 02:46:46;;;;;;;;;80.50;59.75;;;;;6.48;100.00;102192.19;5070872;28;46984;-80
2023/01/26 02:51:56;;;;;;;;;73.75;57.00;;;;;6.71;100.00;102188.19;5084056;28;45412;-80
2023/01/26 02:57:05;;;;;;;;;70.75;54.75;;;;;6.77;100.00;102183.31;5081782;28;45389;-80
2023/01/26 02:59:30;;;;;;;;;77.25;58.00;;;;;6.77;100.00;102190.53;5083477;28;45423;-80
2023/01/26 03:01:57;;;;;;;;;76.75;53.75;;;;;6.78;100.00;102193.16;5074172;27;45240;-80
2023/01/26 03:04:22;;;;;;;;;82.50;59.25;;;;;6.81;100.00;102186.69;5084458;27;45465;-80
2023/01/26 03:06:48;;;;;;;;;82.50;61.75;;;;;6.68;100.00;102183.81;5082743;27;45528;-80
2023/01/26 03:09:13;;;;;;;;;79.50;61.00;;;;;6.60;100.00;102181.56;5078379;28;45218;-81
2023/01/26 03:11:41;;;;;;;;;83.00;58.75;;;;;6.70;100.00;102171.13;5083581;27;45250;-80
2023/01/26 03:14:16;;;;;;;;;74.75;55.50;;;;;6.85;100.00;102183.72;5079888;28;45522;-80
2023/01/26 03:16:42;;;;;;;;;83.00;56.75;;;;;6.84;100.00;102165.78;5081692;28;47326;-80
2023/01/26 03:27:26;;;;;;;;;72.75;54.00;;;;;6.92;100.00;102168.03;5071915;28;45393;-80
2023/01/26 03:29:52;;;;;;;;;97.75;64.00;;;;;6.86;100.00;102161.16;5079002;28;46267;-80
2023/01/26 03:32:17;;;;;;;;;82.25;59.00;;;;;6.72;100.00;102162.94;5073193;28;45484;-80
2023/01/26 03:34:43;;;;;;;;;82.25;58.50;;;;;6.76;100.00;102149.13;5072013;27;45424;-80
2023/01/26 03:37:09;;;;;;;;;75.75;51.75;;;;;6.68;100.00;102150.53;5073958;28;45471;-80
2023/01/26 03:56:19;;;;;;;;;81.75;52.00;;;;;6.84;100.00;102141.47;5077718;28;45401;-80
2023/01/26 03:58:45;;;;;;;;;67.50;51.50;;;;;6.95;100.00;102151.63;5075397;28;45511;-80
2023/01/26 04:01:17;;;;;;;;;71.00;51.25;;;;;7.03;100.00;102143.94;5074708;28;45302;-80
2023/01/26 04:09:11;;;;;;;;;73.25;56.00;;;;;7.06;100.00;102135.66;5081405;28;45408;-80
2023/01/26 04:11:37;;;;;;;;;66.75;51.50;;;;;7.13;100.00;102141.56;5079184;28;45543;-80
2023/01/26 04:22:14;;;;;;;;;70.50;52.00;;;;;7.16;100.00;102146.78;5081279;28;45498;-80
2023/01/26 04:24:39;;;;;;;;;67.25;52.25;;;;;7.15;100.00;102140.50;5090939;27;45333;-79
2023/01/26 04:27:04;;;;;;;;;79.25;58.25;;;;;7.09;100.00;102130.03;5081779;27;45436;-80
2023/01/26 04:29:30;;;;;;;;;68.75;53.50;;;;;7.10;100.00;102122.81;5078143;28;46726;-79
2023/01/26 04:31:55;;;;;;;;;74.50;54.25;;;;;7.09;100.00;102131.88;5076218;28;45421;-79
2023/01/26 04:34:20;;;;;;;;;74.00;54.50;;;;;7.10;100.00;102136.31;5077131;28;45523;-79
2023/01/26 04:36:46;;;;;;;;;71.50;52.50;;;;;7.09;100.00;102119.22;5072594;27;45642;-80
2023/01/26 04:39:11;;;;;;;;;66.25;52.25;;;;;7.18;100.00;102134.91;5074607;28;46516;-80
2023/01/26 04:41:37;;;;;;;;;74.50;54.00;;;;;7.20;100.00;102132.09;5079253;27;45352;-78
2023/01/26 04:44:02;;;;;;;;;75.50;52.25;;;;;7.25;100.00;102138.09;5074029;27;45381;-79
2023/01/26 04:46:27;;;;;;;;;61.25;47.75;;;;;7.29;100.00;102145.06;5086792;27;45363;-80
2023/01/26 04:48:53;;;;;;;;;65.50;51.25;;;;;7.31;100.00;102140.41;5078156;28;47141;-80
2023/01/26 04:51:20;;;;;;;;;80.00;52.50;;;;;7.26;100.00;102135.31;5078147;27;45400;-79
2023/01/26 04:53:46;;;;;;;;;70.50;51.50;;;;;7.28;100.00;102141.50;5076813;27;45334;-79
2023/01/26 04:56:25;;;;;;;;;71.00;50.25;;;;;7.23;100.00;102149.00;5063782;28;45646;-79
2023/01/26 04:58:51;;;;;;;;;71.75;51.00;;;;;7.10;100.00;102137.19;5070640;28;47115;-78
2023/01/26 05:01:17;;;;;;;;;66.25;51.50;;;;;7.17;100.00;102143.09;5074398;28;45520;-79
2023/01/26 05:03:44;;;;;;;;;60.75;47.00;;;;;7.20;100.00;102138.38;5076793;27;45406;-80
2023/01/26 05:06:10;;;;;;;;;64.75;49.50;;;;;7.21;100.00;102133.84;5082291;28;45522;-80
2023/01/26 05:08:37;;;;;;;;;71.25;50.00;;;;;7.20;100.00;102132.09;5073872;27;47932;-80
2023/01/26 05:11:02;;;;;;;;;78.75;51.25;;;;;7.20;100.00;102121.28;5081447;28;45438;-80
2023/01/26 05:13:27;;;;;;;;;70.25;49.50;;;;;7.33;100.00;102135.81;5076579;28;45578;-82
2023/01/26 05:15:53;;;;;;;;;66.75;47.50;;;;;7.32;100.00;102142.16;5079479;27;45580;-81
2023/01/26 05:18:18;;;;;;;;;71.50;49.75;;;;;7.26;100.00;102137.13;5068244;28;48051;-79
2023/01/26 05:20:43;;;;;;;;;79.50;53.50;;;;;7.21;100.00;102134.72;5074764;28;45435;-80
2023/01/26 05:23:09;;;;;;;;;76.75;53.75;;;;;7.23;100.00;102138.19;5049720;28;45315;-80
2023/01/26 05:25:34;;;;;;;;;74.00;53.50;;;;;7.20;100.00;102140.22;5079959;28;45309;-80
2023/01/26 05:28:00;;;;;;;;;69.50;51.00;;;;;7.22;100.00;102141.00;5075910;27;46534;-79
2023/01/26 05:30:25;;;;;;;;;67.50;52.50;;;;;7.26;100.00;102139.84;5074022;28;45297;-79
2023/01/26 05:32:51;;;;;;;;;73.75;49.50;;;;;7.22;100.00;102136.47;5067381;28;45530;-80
2023/01/26 05:35:16;;;;;;;;;83.00;58.75;;;;;7.19;100.00;102143.88;5079770;28;45610;-78
2023/01/26 05:37:42;;;;;;;;;70.75;54.00;;;;;7.21;100.00;102144.66;5075958;27;45531;-79
2023/01/26 05:40:11;;;;;;;;;75.50;56.00;;;;;7.31;100.00;102151.22;5073078;28;45455;-82
2023/01/26 05:42:37;;;;;;;;;74.50;51.75;;;;;7.26;100.00;102148.81;5073503;27;45409;-80
2023/01/26 05:45:03;;;;;;;;;66.00;47.75;;;;;7.22;100.00;102149.13;5080984;27;45364;-80
2023/01/26 05:47:29;;;;;;;;;62.50;50.50;;;;;7.17;100.00;102132.28;5074882;28;47897;-78
2023/01/26 05:49:54;;;;;;;;;72.25;53.25;;;;;7.28;100.00;102146.03;5078154;27;45462;-81
2023/01/26 05:52:21;;;;;;;;;73.75;54.25;;;;;7.22;100.00;102150.00;5069862;28;45943;-81
2023/01/26 05:54:46;;;;;;;;;75.00;50.75;;;;;7.15;100.00;102142.34;5080488;28;45454;-80
2023/01/26 05:57:12;;;;;;;;;65.25;51.00;;;;;7.23;100.00;102135.47;5080332;27;45858;-80
2023/01/26 05:59:38;;;;;;;;;69.25;46.00;;;;;7.23;100.00;102127.38;5077955;28;45413;-79
2023/01/26 06:02:03;;;;;;;;;67.75;50.75;;;;;7.33;100.00;102138.50;5078656;28;45267;-79
2023/01/26 06:04:29;;;;;;;;;70.00;51.25;;;;;7.17;100.00;102132.28;5081951;28;45314;-80
2023/01/26 06:06:56;;;;;;;;;67.00;48.75;;;;;7.25;100.00;102149.78;5079777;28;46437;-79
2023/01/26 06:09:22;;;;;;;;;68.25;52.00;;;;;7.17;100.00;102149.38;5081462;28;45222;-81
2023/01/26 06:11:48;;;;;;;;;76.25;55.75;;;;;6.98;100.00;102149.63;5078066;28;45536;-80
2023/01/26 06:14:13;;;;;;;;;75.50;54.75;;;;;6.98;100.00;102148.75;5071262;28;45476;-81
2023/01/26 06:16:39;;;;;;;;;69.00;53.25;;;;;6.99;100.00;102142.38;5075299;27;46850;-80
2023/01/26 06:19:04;;;;;;;;;72.00;51.50;;;;;7.16;100.00;102157.59;5077073;28;45545;-81
2023/01/26 06:21:30;;;;;;;;;63.00;48.50;;;;;7.23;100.00;102153.56;5080332;28;45325;-80
2023/01/26 06:23:56;;;;;;;;;70.25;54.00;;;;;7.04;100.00;102143.84;5070353;28;45399;-79
2023/01/26 06:26:23;;;;;;;;;71.50;55.50;;;;;6.97;100.00;102147.88;5071523;28;48125;-80
2023/01/26 06:28:49;;;;;;;;;65.75;49.50;;;;;7.04;100.00;102135.72;5073422;27;45399;-81
2023/01/26 06:31:15;;;;;;;;;58.00;47.75;;;;;7.15;100.00;102145.91;5076009;28;45292;-81
2023/01/26 06:33:40;;;;;;;;;66.50;46.00;;;;;7.23;100.00;102131.94;5077289;28;45424;-80
2023/01/26 06:36:09;;;;;;;;;68.25;54.00;;;;;6.98;100.00;102146.91;5093179;27;46568;-79
2023/01/26 06:38:35;;;;;;;;;76.75;53.25;;;;;6.89;100.00;102144.75;5080766;28;45850;-79
2023/01/26 06:41:06;;;;;;;;;73.25;54.50;;;;;6.84;100.00;102157.66;5081561;27;45371;-79
2023/01/26 06:43:33;;;;;;;;;72.50;53.00;;;;;6.83;100.00;102161.31;5080859;27;45333;-78
2023/01/26 06:45:59;;;;;;;;;74.75;50.75;;;;;6.92;100.00;102151.81;5085487;28;45367;-80
2023/01/26 06:48:26;;;;;;;;;70.25;51.75;;;;;6.92;100.00;102147.28;5075702;27;45396;-80
2023/01/26 06:50:52;;;;;;;;;69.25;50.00;;;;;6.92;100.00;102150.00;5078811;28;45305;-80
2023/01/26 06:53:37;;;;;;;;;72.75;54.75;;;;;6.97;100.00;102158.69;5076673;27;45403;-75
2023/01/26 06:56:02;;;;;;;;;70.50;49.25;;;;;7.07;100.00;102160.84;5078157;28;46264;-79
2023/01/26 06:58:28;;;;;;;;;68.00;49.25;;;;;7.10;100.00;102152.53;5071255;28;45376;-79
2023/01/26 07:00:54;;;;;;;;;73.50;49.00;;;;;7.06;100.00;102159.97;5078995;28;45276;-80
2023/01/26 07:03:20;;;;;;;;;78.00;58.50;;;;;6.87;100.00;102162.88;5083897;28;45530;-81
2023/01/26 07:05:45;;;;;;;;;66.75;50.00;;;;;6.84;100.00;102163.06;5084909;27;45232;-80
2023/01/26 07:08:10;;;;;;;;;86.25;55.50;;;;;6.92;100.00;102147.28;5079625;28;45219;-79
2023/01/26 07:10:36;;;;;;;;;78.25;53.50;;;;;7.08;100.00;102151.78;5083422;28;45306;-80
2023/01/26 07:13:05;;;;;;;;;81.00;54.00;;;;;7.14;100.00;102159.50;5080645;27;45261;-79
2023/01/26 07:15:31;;;;;;;;;71.75;54.75;;;;;7.17;100.00;102149.38;5080900;28;46666;-80
2023/01/26 07:17:57;;;;;;;;;71.25;53.00;;;;;7.18;100.00;102155.66;5079033;28;45422;-80
2023/01/26 07:20:23;;;;;;;;;69.25;51.25;;;;;7.25;100.00;102159.72;5078238;28;45392;-80
2023/01/26 07:22:49;;;;;;;;;82.50;55.75;;;;;7.12;100.00;102172.25;5068872;28;45236;-80
2023/01/26 07:25:16;;;;;;;;;67.25;53.50;;;;;7.03;100.00;102165.53;5079171;28;48254;-79
2023/01/26 07:27:41;;;;;;;;;79.00;54.50;;;;;7.13;100.00;102164.03;5078120;28;45310;-80
2023/01/26 07:30:08;;;;;;;;;78.00;56.25;;;;;7.09;100.00;102167.00;5077082;28;45284;-80
2023/01/26 07:32:33;;;;;;;;;72.75;54.50;;;;;6.99;100.00;102166.69;5076589;27;45567;-81
2023/01/26 07:34:59;;;;;;;;;69.75;54.50;;;;;7.03;100.00;102171.81;5080113;28;46265;-82
2023/01/26 07:37:28;;;;;;;;;75.00;51.25;;;;;7.07;100.00;102167.13;5078539;28;45381;-78
2023/01/26 07:39:53;;;;;;;;;78.00;57.25;;;;;7.13;100.00;102171.28;5100744;27;45911;-80
2023/01/26 07:42:18;;;;;;;;;72.50;54.75;;;;;7.21;100.00;102171.69;5082436;27;45599;-79
2023/01/26 07:44:44;;;;;;;;;78.25;54.75;;;;;6.98;100.00;102157.72;5082344;28;45361;-82
2023/01/26 07:47:09;;;;;;;;;74.75;53.00;;;;;7.10;100.00;102168.75;5080344;28;45504;-80
2023/01/26 07:49:34;;;;;;;;;68.25;47.25;;;;;7.10;100.00;102166.91;5078652;28;45424;-80
2023/01/26 07:52:00;;;;;;;;;70.25;51.50;;;;;7.13;100.00;102168.59;5083174;27;45356;-81
2023/01/26 07:54:26;;;;;;;;;63.25;47.25;;;;;7.14;100.00;102171.19;5078006;28;46910;-79
2023/01/26 07:56:53;;;;;;;;;67.75;54.25;;;;;7.17;100.00;102175.53;5082873;27;45204;-79
2023/01/26 07:59:19;;;;;;;;;77.25;52.50;;;;;7.25;100.00;102186.75;5078043;28;45391;-80
2023/01/26 08:01:47;;;;;;;;;71.00;52.25;;;;;7.22;100.00;102178.84;5083074;27;45379;-82
2023/01/26 08:04:12;;;;;;;;;67.00;51.00;;;;;7.02;100.00;102183.59;5081215;28;45457;-80
2023/01/26 08:06:38;;;;;;;;;56.25;44.00;;;;;6.89;100.00;102179.88;5073717;28;45395;-80
2023/01/26 08:09:03;;;;;;;;;63.50;45.25;;;;;7.01;100.00;102181.84;5078653;27;45456;-82
2023/01/26 08:11:28;;;;;;;;;70.50;50.75;;;;;7.20;100.00;102186.16;5082436;27;45519;-81
2023/01/26 08:13:55;;;;;;;;;71.75;54.50;;;;;7.24;100.00;102193.13;5073343;28;45313;-80
2023/01/26 08:16:20;;;;;;;;;72.00;51.25;;;;;7.03;100.00;102189.88;5077318;28;45678;-83
2023/01/26 08:18:46;;;;;;;;;52.00;40.00;;;;;7.02;100.00;102194.41;5072635;28;45445;-81
2023/01/26 08:21:14;;;;;;;;;67.25;47.50;;;;;7.14;100.00;102208.16;5082860;28;45197;-79
2023/01/26 08:23:39;;;;;;;;;67.75;49.25;;;;;7.22;100.00;102197.78;5072919;28;46752;-80
2023/01/26 08:26:08;;;;;;;;;62.50;48.25;;;;;7.40;100.00;102216.44;5081967;28;45387;-84
2023/01/26 08:28:33;;;;;;;;;73.25;52.00;;;;;7.33;100.00;102208.78;5075805;27;45340;-81
2023/01/26 08:31:07;;;;;;;;;60.75;46.50;;;;;7.38;100.00;102215.66;5084515;27;45251;-80
2023/01/26 08:33:34;;;;;;;;;66.25;50.00;;;;;7.45;100.00;102216.19;5067823;28;47834;-82
2023/01/26 08:36:01;;;;;;;;;65.50;51.75;;;;;7.40;100.00;102210.16;5070975;28;45233;-80
2023/01/26 08:38:29;;;;;;;;;69.00;51.50;;;;;7.42;100.00;102219.94;5073876;28;45646;-82
2023/01/26 08:40:54;;;;;;;;;74.75;51.00;;;;;7.35;100.00;102223.09;5091654;27;45420;-80
2023/01/26 08:43:20;;;;;;;;;75.00;53.50;;;;;7.45;100.00;102221.59;5075470;28;46297;-80
2023/01/26 08:45:46;;;;;;;;;70.00;47.75;;;;;7.53;100.00;102227.38;5082120;27;45338;-79
2023/01/26 08:48:11;;;;;;;;;52.00;43.00;;;;;7.57;100.00;102231.66;5081912;27;45535;-79
2023/01/26 08:50:37;;;;;;;;;52.25;41.75;;;;;7.60;100.00;102234.16;5082074;27;45385;-79
2023/01/26 08:53:02;;;;;;;;;62.25;50.25;;;;;7.57;100.00;102234.38;5078545;27;46235;-79
2023/01/26 08:55:28;;;;;;;;;69.50;53.75;;;;;7.48;100.00;102229.50;5080481;27;45283;-80
2023/01/26 08:57:54;;;;;;;;;81.50;58.25;;;;;7.55;100.00;102230.88;5075334;27;45342;-81
2023/01/26 09:00:21;;;;;;;;;67.50;49.50;;;;;7.40;100.00;102229.97;5083726;28;45226;-79
2023/01/26 09:02:48;;;;;;;;;71.00;52.50;;;;;7.56;100.00;102232.63;5079491;28;46641;-79
2023/01/26 09:05:13;;;;;;;;;68.75;51.50;;;;;7.57;100.00;102228.09;5083996;27;45360;-79
2023/01/26 09:07:38;;;;;;;;;62.25;43.75;;;;;7.32;100.00;102224.16;5070158;28;45299;-79
2023/01/26 09:10:04;;;;;;;;;71.50;49.75;;;;;7.40;100.00;102220.97;5074709;27;45515;-79
2023/01/26 09:12:30;;;;;;;;;65.50;48.75;;;;;7.57;100.00;102239.78;5079435;28;45547;-80
2023/01/26 09:14:55;;;;;;;;;69.25;53.25;;;;;7.69;100.00;102249.84;5079357;28;45671;-79
2023/01/26 09:17:21;;;;;;;;;69.75;51.25;;;;;7.72;100.00;102246.97;5078272;27;45398;-81
2023/01/26 09:19:46;;;;;;;;;70.75;52.25;;;;;7.77;100.00;102250.25;5079106;28;45601;-79
2023/01/26 09:22:11;;;;;;;;;66.50;49.00;;;;;7.77;100.00;102241.25;5078133;27;47837;-79
2023/01/26 09:24:37;;;;;;;;;74.00;56.50;;;;;7.75;100.00;102233.22;5081236;28;45768;-80
2023/01/26 09:27:02;;;;;;;;;79.00;57.00;;;;;7.80;100.00;102257.31;5076743;28;45375;-76
2023/01/26 09:29:27;;;;;;;;;80.50;56.75;;;;;7.71;100.00;102247.94;5081086;28;45464;-79
2023/01/26 09:31:53;;;;;;;;;78.50;57.00;;;;;7.89;100.00;102255.88;5078694;27;45590;-78
2023/01/26 09:34:18;;;;;;;;;84.25;63.75;;;;;7.85;100.00;102249.78;5080196;27;45437;-78
2023/01/26 09:36:43;;;;;;;;;75.00;51.50;;;;;7.95;100.00;102258.22;5079903;27;45435;-76
2023/01/26 09:39:09;;;;;;;;;76.00;57.00;;;;;7.92;100.00;102253.84;5093434;27;45230;-79
2023/01/26 09:41:40;;;;;;;;;79.75;59.00;;;;;8.05;100.00;102267.47;5081742;28;46616;-79
2023/01/26 09:44:19;;;;;;;;;78.50;60.00;;;;;8.03;100.00;102247.78;5077518;28;45350;-77
2023/01/26 09:47:13;;;;;;;;;77.25;57.25;;;;;8.24;100.00;102265.38;5085816;27;45299;-79
2023/01/26 09:49:56;;;;;;;;;73.75;54.25;;;;;8.25;100.00;102267.13;5079852;28;45639;-77
2023/01/26 09:52:54;;;;;;;;;67.50;53.00;;;;;8.32;100.00;102268.53;5075732;27;45552;-77
2023/01/26 09:55:21;;;;;;;;;71.50;51.00;;;;;8.45;100.00;102268.59;5057308;28;45539;-79
2023/01/26 09:57:52;;;;;;;;;71.50;54.00;;;;;8.46;100.00;102257.69;5073978;27;45286;-76
2023/01/26 10:00:43;;;;;;;;;64.75;52.25;;;;;8.54;100.00;102268.03;5082111;27;45383;-77
2023/01/26 10:03:25;;;;;;;;;69.00;50.50;;;;;8.47;100.00;102258.56;5069964;28;45800;-77
2023/01/26 10:06:02;;;;;;;;;70.50;54.50;;;;;8.62;100.00;102262.13;5080901;27;45329;-78
2023/01/26 10:08:28;;;;;;;;;65.50;46.00;;;;;8.61;100.00;102260.38;5075434;28;45241;-77
2023/01/26 10:10:59;;;;;;;;;69.75;51.75;;;;;8.66;100.00;102269.06;5080700;28;45622;-79
2023/01/26 10:13:25;;;;;;;;;64.50;48.75;;;;;8.74;100.00;102264.03;5076977;27;46261;-77
2023/01/26 10:15:59;;;;;;;;;63.00;48.25;;;;;8.70;100.00;102271.47;5079074;28;45464;-79
2023/01/26 10:18:34;;;;;;;;;68.50;51.50;;;;;8.64;100.00;102265.56;5090855;27;45413;-76
2023/01/26 10:21:02;;;;;;;;;64.50;50.50;;;;;8.69;100.00;102261.63;5092587;27;45206;-77
2023/01/26 10:23:30;;;;;;;;;55.50;45.25;;;;;8.72;100.00;102265.94;5072095;28;46386;-77
2023/01/26 10:26:09;;;;;;;;;66.50;50.25;;;;;8.77;100.00;102272.81;5077784;28;45319;-78
2023/01/26 10:28:35;;;;;;;;;69.25;49.50;;;;;8.73;100.00;102262.28;5075158;28;45514;-78
2023/01/26 10:31:04;;;;;;;;;65.25;49.50;;;;;8.63;100.00;102271.94;5082866;27;45275;-78
2023/01/26 10:33:35;;;;;;;;;63.25;48.75;;;;;8.50;100.00;102271.88;5081456;28;46607;-78
2023/01/26 10:36:02;;;;;;;;;78.50;56.25;;;;;8.33;100.00;102270.22;5082086;27;45237;-77
2023/01/26 10:38:27;;;;;;;;;63.00;51.50;;;;;8.34;100.00;102271.97;5078763;27;45401;-79
2023/01/26 10:40:54;;;;;;;;;65.25;46.50;;;;;8.40;100.00;102270.75;5080647;28;45524;-76
2023/01/26 10:43:19;;;;;;;;;69.75;50.25;;;;;8.51;100.00;102250.13;5078835;28;45523;-78
2023/01/26 10:45:46;;;;;;;;;70.75;53.50;;;;;8.62;100.00;102260.25;5078430;28;45438;-79
2023/01/26 10:48:23;;;;;;;;;65.50;50.00;;;;;8.53;100.00;102250.03;5077478;28;45544;-78
2023/01/26 10:50:49;;;;;;;;;69.25;51.50;;;;;8.39;100.00;102260.88;5078354;28;45388;-77
2023/01/26 10:53:28;;;;;;;;;79.75;55.00;;;;;8.21;100.00;102246.63;5073762;28;47022;-77
2023/01/26 10:56:03;;;;;;;;;64.50;50.75;;;;;8.51;100.00;102250.13;5077533;28;45314;-78
2023/01/26 10:59:00;;;;;;;;;52.75;40.50;;;;;8.53;100.00;102256.31;5079101;27;45384;-78
2023/01/26 11:01:26;;;;;;;;;65.25;47.25;;;;;8.86;100.00;102257.78;5080350;27;45380;-77
2023/01/26 11:04:10;;;;;;;;;67.25;51.50;;;;;9.03;100.00;102240.41;5079449;27;46046;-78
2023/01/26 11:06:36;;;;;;;;;61.25;48.50;;;;;9.17;100.00;102245.78;5082286;28;45434;-79
2023/01/26 11:09:14;;;;;;;;;60.25;45.25;;;;;9.23;100.00;102243.53;5082965;27;46521;-78
2023/01/26 11:11:40;;;;;;;;;68.50;48.00;;;;;9.32;100.00;102239.31;5085029;27;45297;-79
2023/01/26 11:14:18;;;;;;;;;63.75;47.50;;;;;9.30;100.00;102243.97;5077314;27;45511;-77
2023/01/26 11:16:59;;;;;;;;;53.00;38.75;;;;;9.25;100.00;102235.28;5080608;27;45463;-79
2023/01/26 11:19:33;;;;;;;;;62.00;45.25;;;;;9.30;100.00;102231.28;5076582;28;45293;-78
2023/01/26 11:22:07;;;;;;;;;60.75;46.75;;;;;9.40;100.00;102227.97;5077462;27;45599;-80
2023/01/26 11:24:59;;;;;;;;;58.75;47.25;;;;;9.36;100.00;102233.56;5078450;28;45544;-80
2023/01/26 11:27:36;;;;;;;;;63.50;49.75;;;;;9.39;100.00;102229.81;5070121;28;45302;-78
2023/01/26 11:30:05;;;;;;;;;63.25;48.00;;;;;9.24;100.00;102231.72;5093692;27;45406;-80
2023/01/26 11:33:05;;;;;;;;;60.50;46.25;;;;;8.89;100.00;102222.38;5081727;27;45183;-78
2023/01/26 11:35:55;;;;;;;;;76.25;58.25;;;;;8.70;100.00;102228.09;5086968;27;47031;-78
2023/01/26 11:38:38;;;;;;;;;71.75;52.75;;;;;8.85;100.00;102231.66;5071669;28;45414;-80
2023/01/26 11:41:24;;;;;;;;;64.75;47.25;;;;;8.49;100.00;102218.66;5081211;28;45336;-79
2023/01/26 11:44:02;;;;;;;;;63.50;46.75;;;;;8.65;100.00;102218.53;5077431;28;45171;-79
2023/01/26 11:46:33;;;;;;;;;60.50;47.00;;;;;8.56;100.00;102218.16;5079942;27;46741;-78
2023/01/26 11:49:10;;;;;;;;;63.75;43.50;;;;;8.57;100.00;102227.16;5075750;28;45498;-79
2023/01/26 11:51:57;;;;;;;;;63.50;49.00;;;;;8.81;100.00;102222.00;5081882;28;45465;-79
2023/01/26 11:54:42;;;;;;;;;58.50;43.25;;;;;8.87;100.00;102224.28;5073131;27;45356;-79
2023/01/26 11:57:41;;;;;;;;;48.75;38.50;;;;;8.91;100.00;102225.84;5072989;28;46287;-78
2023/01/26 12:00:20;;;;;;;;;44.00;38.00;;;;;8.70;100.00;102227.22;5071935;28;45404;-76
2023/01/26 12:02:56;;;;;;;;;52.50;42.25;;;;;8.68;100.00;102229.19;5066469;28;45276;-78